sensor_id;sensor_type;location;lat;lon;timestamp;P1;durP1;ratioP1;P2;durP2;ratioP2
2099;SDS011;1055;48.854;9.302;2023-01-26T00:00:47;42.45;;;21.50;;
2099;SDS011;1055;48.854;9.302;2023-01-26T00:03:12;39.13;;;17.33;;
2099;SDS011;1055;48.854;9.302;2023-01-26T00:05:38;42.20;;;22.47;;
2099;SDS011;1055;48.854;9.302;2023-01-26T00:08:04;42.20;;;19.40;;
2099;SDS011;1055;48.854;9.302;2023-01-26T00:10:30;38.38;;;18.67;;
2099;SDS011;1055;48.854;9.302;2023-01-26T00:12:56;35.17;;;18.07;;
2099;SDS011;1055;48.854;9.302;2023-01-26T00:15:21;41.00;;;19.40;;
2099;SDS011;1055;48.854;9.302;2023-01-26T00:17:47;39.27;;;18.63;;
2099;SDS011;1055;48.854;9.302;2023-01-26T00:20:15;43.28;;;19.83;;
2099;SDS011;1055;48.854;9.302;2023-01-26T00:22:41;42.10;;;19.10;;
2099;SDS011;1055;48.854;9.302;2023-01-26T00:25:07;40.53;;;19.20;;
2099;SDS011;1055;48.854;9.302;2023-01-26T00:27:34;43.60;;;21.27;;
2099;SDS011;1055;48.854;9.302;2023-01-26T00:29:59;39.27;;;17.70;;
2099;SDS011;1055;48.854;9.302;2023-01-26T00:32:25;40.37;;;18.70;;
2099;SDS011;1055;48.854;9.302;2023-01-26T00:34:50;40.80;;;18.23;;
2099;SDS011;1055;48.854;9.302;2023-01-26T00:37:16;46.33;;;20.50;;
2099;SDS011;1055;48.854;9.302;2023-01-26T00:39:42;38.50;;;18.90;;
2099;SDS011;1055;48.854;9.302;2023-01-26T00:42:07;37.17;;;19.50;;
2099;SDS011;1055;48.854;9.302;2023-01-26T00:44:35;43.20;;;20.77;;
2099;SDS011;1055;48.854;9.302;2023-01-26T00:47:01;41.75;;;20.88;;
2099;SDS011;1055;48.854;9.302;2023-01-26T00:49:27;42.23;;;19.93;;
2099;SDS011;1055;48.854;9.302;2023-01-26T00:51:53;36.07;;;18.73;;
2099;SDS011;1055;48.854;9.302;2023-01-26T00:54:18;38.47;;;18.33;;
2099;SDS011;1055;48.854;9.302;2023-01-26T00:56:44;40.90;;;19.87;;
2099;SDS011;1055;48.854;9.302;2023-01-26T00:59:09;41.50;;;19.03;;
2099;SDS011;1055;48.854;9.302;2023-01-26T01:01:35;39.23;;;19.40;;
2099;SDS011;1055;48.854;9.302;2023-01-26T01:04:01;39.30;;;19.40;;
2099;SDS011;1055;48.854;9.302;2023-01-26T01:06:26;43.00;;;19.67;;
2099;SDS011;1055;48.854;9.302;2023-01-26T01:08:52;37.37;;;20.20;;
2099;SDS011;1055;48.854;9.302;2023-01-26T01:11:17;36.33;;;19.60;;
2099;SDS011;1055;48.854;9.302;2023-01-26T01:13:43;35.97;;;16.90;;
2099;SDS011;1055;48.854;9.302;2023-01-26T01:16:10;30.87;;;15.40;;
2099;SDS011;1055;48.854;9.302;2023-01-26T01:18:37;32.33;;;15.07;;
2099;SDS011;1055;48.854;9.302;2023-01-26T01:21:06;30.10;;;13.93;;
2099;SDS011;1055;48.854;9.302;2023-01-26T01:23:32;32.47;;;15.30;;
2099;SDS011;1055;48.854;9.302;2023-01-26T01:25:58;32.57;;;15.90;;
2099;SDS011;1055;48.854;9.302;2023-01-26T01:28:24;30.45;;;15.63;;
2099;SDS011;1055;48.854;9.302;2023-01-26T01:30:50;30.25;;;15.48;;
2099;SDS011;1055;48.854;9.302;2023-01-26T01:33:16;36.20;;;16.37;;
2099;SDS011;1055;48.854;9.302;2023-01-26T01:35:42;35.73;;;15.80;;
2099;SDS011;1055;48.854;9.302;2023-01-26T01:38:07;33.83;;;16.13;;
2099;SDS011;1055;48.854;9.302;2023-01-26T01:40:33;35.13;;;16.87;;
2099;SDS011;1055;48.854;9.302;2023-01-26T01:42:58;35.37;;;16.20;;
2099;SDS011;1055;48.854;9.302;2023-01-26T01:48:00;34.07;;;16.60;;
2099;SDS011;1055;48.854;9.302;2023-01-26T01:50:27;36.88;;;16.70;;
2099;SDS011;1055;48.854;9.302;2023-01-26T01:52:57;36.03;;;17.00;;
2099;SDS011;1055;48.854;9.302;2023-01-26T01:55:23;36.60;;;17.13;;
2099;SDS011;1055;48.854;9.302;2023-01-26T01:57:51;34.05;;;17.45;;
2099;SDS011;1055;48.854;9.302;2023-01-26T02:00:20;32.83;;;17.00;;
2099;SDS011;1055;48.854;9.302;2023-01-26T02:02:48;36.55;;;17.13;;
2099;SDS011;1055;48.854;9.302;2023-01-26T02:05:51;38.38;;;17.67;;
2099;SDS011;1055;48.854;9.302;2023-01-26T02:08:25;35.35;;;16.23;;
2099;SDS011;1055;48.854;9.302;2023-01-26T02:10:55;29.15;;;15.60;;
2099;SDS011;1055;48.854;9.302;2023-01-26T02:13:24;35.45;;;17.85;;
2099;SDS011;1055;48.854;9.302;2023-01-26T02:15:51;30.50;;;14.90;;
2099;SDS011;1055;48.854;9.302;2023-01-26T02:18:17;34.57;;;15.37;;
2099;SDS011;1055;48.854;9.302;2023-01-26T02:20:49;30.15;;;15.63;;
2099;SDS011;1055;48.854;9.302;2023-01-26T02:28:41;31.90;;;14.63;;
2099;SDS011;1055;48.854;9.302;2023-01-26T02:31:09;27.38;;;14.27;;
2099;SDS011;1055;48.854;9.302;2023-01-26T02:33:35;31.38;;;14.98;;
2099;SDS011;1055;48.854;9.302;2023-01-26T02:36:02;34.58;;;16.23;;
2099;SDS011;1055;48.854;9.302;2023-01-26T02:38:34;29.63;;;14.27;;
2099;SDS011;1055;48.854;9.302;2023-01-26T02:41:07;32.65;;;16.50;;
2099;SDS011;1055;48.854;9.302;2023-01-26T02:43:58;31.48;;;15.85;;
2099;SDS011;1055;48.854;9.302;2023-01-26T02:46:25;31.98;;;16.25;;
2099;SDS011;1055;48.854;9.302;2023-01-26T02:48:50;31.27;;;16.63;;
2099;SDS011;1055;48.854;9.302;2023-01-26T02:51:34;35.50;;;17.35;;
2099;SDS011;1055;48.854;9.302;2023-01-26T02:54:00;36.90;;;15.90;;
2099;SDS011;1055;48.854;9.302;2023-01-26T02:56:25;29.90;;;15.13;;
2099;SDS011;1055;48.854;9.302;2023-01-26T02:58:51;32.63;;;15.23;;
2099;SDS011;1055;48.854;9.302;2023-01-26T03:01:17;36.83;;;16.97;;
2099;SDS011;1055;48.854;9.302;2023-01-26T03:03:42;35.57;;;16.53;;
2099;SDS011;1055;48.854;9.302;2023-01-26T03:06:09;34.10;;;15.13;;
2099;SDS011;1055;48.854;9.302;2023-01-26T03:08:36;36.83;;;16.77;;
2099;SDS011;1055;48.854;9.302;2023-01-26T03:11:03;31.92;;;14.15;;
2099;SDS011;1055;48.854;9.302;2023-01-26T03:13:29;32.47;;;14.40;;
2099;SDS011;1055;48.854;9.302;2023-01-26T03:15:55;32.67;;;13.60;;
2099;SDS011;1055;48.854;9.302;2023-01-26T03:18:26;32.20;;;15.50;;
2099;SDS011;1055;48.854;9.302;2023-01-26T03:21:12;26.83;;;12.85;;
2099;SDS011;1055;48.854;9.302;2023-01-26T03:23:59;32.58;;;14.20;;
2099;SDS011;1055;48.854;9.302;2023-01-26T03:26:44;28.35;;;14.60;;
2099;SDS011;1055;48.854;9.302;2023-01-26T03:29:29;33.50;;;15.65;;
2099;SDS011;1055;48.854;9.302;2023-01-26T03:31:55;29.58;;;13.02;;
2099;SDS011;1055;48.854;9.302;2023-01-26T03:34:22;29.17;;;14.57;;
2099;SDS011;1055;48.854;9.302;2023-01-26T03:36:48;25.97;;;13.37;;
2099;SDS011;1055;48.854;9.302;2023-01-26T03:39:14;28.33;;;12.70;;
2099;SDS011;1055;48.854;9.302;2023-01-26T03:42:09;27.75;;;12.77;;
2099;SDS011;1055;48.854;9.302;2023-01-26T03:44:53;29.70;;;14.13;;
2099;SDS011;1055;48.854;9.302;2023-01-26T03:47:37;32.67;;;14.75;;
2099;SDS011;1055;48.854;9.302;2023-01-26T03:50:21;30.23;;;13.60;;
2099;SDS011;1055;48.854;9.302;2023-01-26T03:53:16;28.50;;;12.43;;
2099;SDS011;1055;48.854;9.302;2023-01-26T03:56:02;27.75;;;12.02;;
2099;SDS011;1055;48.854;9.302;2023-01-26T03:58:42;30.38;;;14.73;;
2099;SDS011;1055;48.854;9.302;2023-01-26T04:01:09;32.88;;;15.00;;
2099;SDS011;1055;48.854;9.302;2023-01-26T04:03:35;34.78;;;14.55;;
2099;SDS011;1055;48.854;9.302;2023-01-26T04:06:19;33.15;;;14.45;;
2099;SDS011;1055;48.854;9.302;2023-01-26T04:09:04;34.15;;;16.65;;
2099;SDS011;1055;48.854;9.302;2023-01-26T04:11:29;31.60;;;15.10;;
2099;SDS011;1055;48.854;9.302;2023-01-26T04:13:55;34.00;;;15.43;;
2099;SDS011;1055;48.854;9.302;2023-01-26T04:16:39;35.30;;;16.55;;
2099;SDS011;1055;48.854;9.302;2023-01-26T04:19:23;32.65;;;14.90;;
2099;SDS011;1055;48.854;9.302;2023-01-26T04:22:07;32.95;;;15.27;;
2099;SDS011;1055;48.854;9.302;2023-01-26T04:24:33;34.90;;;15.43;;
2099;SDS011;1055;48.854;9.302;2023-01-26T04:26:59;38.70;;;16.10;;
2099;SDS011;1055;48.854;9.302;2023-01-26T04:29:24;32.27;;;16.17;;
2099;SDS011;1055;48.854;9.302;2023-01-26T04:31:50;26.60;;;13.50;;
2099;SDS011;1055;48.854;9.302;2023-01-26T04:34:15;29.60;;;15.37;;
2099;SDS011;1055;48.854;9.302;2023-01-26T04:36:41;32.90;;;14.93;;
2099;SDS011;1055;48.854;9.302;2023-01-26T04:39:07;32.30;;;15.82;;
2099;SDS011;1055;48.854;9.302;2023-01-26T04:41:33;31.80;;;13.77;;
2099;SDS011;1055;48.854;9.302;2023-01-26T04:43:59;33.20;;;15.67;;
2099;SDS011;1055;48.854;9.302;2023-01-26T04:46:25;33.10;;;15.87;;
2099;SDS011;1055;48.854;9.302;2023-01-26T04:48:51;32.67;;;15.90;;
2099;SDS011;1055;48.854;9.302;2023-01-26T04:51:17;31.17;;;15.87;;
2099;SDS011;1055;48.854;9.302;2023-01-26T04:53:45;31.25;;;14.15;;
2099;SDS011;1055;48.854;9.302;2023-01-26T04:56:17;27.75;;;13.93;;
2099;SDS011;1055;48.854;9.302;2023-01-26T04:58:50;30.15;;;14.82;;
2099;SDS011;1055;48.854;9.302;2023-01-26T05:01:17;36.65;;;14.45;;
2099;SDS011;1055;48.854;9.302;2023-01-26T05:03:43;31.50;;;14.47;;
2099;SDS011;1055;48.854;9.302;2023-01-26T05:06:08;25.40;;;10.57;;
2099;SDS011;1055;48.854;9.302;2023-01-26T05:08:35;34.10;;;16.83;;
2099;SDS011;1055;48.854;9.302;2023-01-26T05:11:01;33.22;;;15.25;;
2099;SDS011;1055;48.854;9.302;2023-01-26T05:13:26;41.60;;;17.03;;
2099;SDS011;1055;48.854;9.302;2023-01-26T05:15:52;37.30;;;15.73;;
2099;SDS011;1055;48.854;9.302;2023-01-26T05:18:17;40.00;;;17.93;;
2099;SDS011;1055;48.854;9.302;2023-01-26T05:20:43;39.87;;;17.30;;
2099;SDS011;1055;48.854;9.302;2023-01-26T05:23:09;34.00;;;14.30;;
2099;SDS011;1055;48.854;9.302;2023-01-26T05:25:34;32.43;;;16.60;;
2099;SDS011;1055;48.854;9.302;2023-01-26T05:28:00;34.73;;;15.60;;
2099;SDS011;1055;48.854;9.302;2023-01-26T05:30:25;34.77;;;16.53;;
2099;SDS011;1055;48.854;9.302;2023-01-26T05:32:51;29.97;;;14.50;;
2099;SDS011;1055;48.854;9.302;2023-01-26T05:35:17;31.20;;;14.67;;
2099;SDS011;1055;48.854;9.302;2023-01-26T05:37:42;36.73;;;16.07;;
2099;SDS011;1055;48.854;9.302;2023-01-26T05:40:09;36.95;;;17.30;;
2099;SDS011;1055;48.854;9.302;2023-01-26T05:42:36;33.10;;;15.10;;
2099;SDS011;1055;48.854;9.302;2023-01-26T05:45:02;29.35;;;14.68;;
2099;SDS011;1055;48.854;9.302;2023-01-26T05:47:29;36.47;;;16.77;;
2099;SDS011;1055;48.854;9.302;2023-01-26T05:49:55;34.93;;;15.83;;
2099;SDS011;1055;48.854;9.302;2023-01-26T05:52:21;33.37;;;15.47;;
2099;SDS011;1055;48.854;9.302;2023-01-26T05:54:47;33.53;;;15.15;;
2099;SDS011;1055;48.854;9.302;2023-01-26T05:57:13;37.50;;;16.10;;
2099;SDS011;1055;48.854;9.302;2023-01-26T05:59:41;33.30;;;14.10;;
2099;SDS011;1055;48.854;9.302;2023-01-26T06:02:07;32.37;;;16.97;;
2099;SDS011;1055;48.854;9.302;2023-01-26T06:04:35;33.60;;;16.42;;
2099;SDS011;1055;48.854;9.302;2023-01-26T06:07:01;34.10;;;16.07;;
2099;SDS011;1055;48.854;9.302;2023-01-26T06:09:27;33.10;;;14.03;;
2099;SDS011;1055;48.854;9.302;2023-01-26T06:11:52;31.93;;;14.73;;
2099;SDS011;1055;48.854;9.302;2023-01-26T06:14:19;34.85;;;15.15;;
2099;SDS011;1055;48.854;9.302;2023-01-26T06:16:45;32.83;;;14.73;;
2099;SDS011;1055;48.854;9.302;2023-01-26T06:19:10;34.83;;;15.80;;
2099;SDS011;1055;48.854;9.302;2023-01-26T06:21:36;32.20;;;16.57;;
2099;SDS011;1055;48.854;9.302;2023-01-26T06:24:02;33.70;;;15.27;;
2099;SDS011;1055;48.854;9.302;2023-01-26T06:26:28;34.88;;;14.98;;
2099;SDS011;1055;48.854;9.302;2023-01-26T06:28:54;35.47;;;15.90;;
2099;SDS011;1055;48.854;9.302;2023-01-26T06:31:20;30.00;;;15.38;;
2099;SDS011;1055;48.854;9.302;2023-01-26T06:33:48;34.92;;;15.60;;
2099;SDS011;1055;48.854;9.302;2023-01-26T06:36:14;32.22;;;14.60;;
2099;SDS011;1055;48.854;9.302;2023-01-26T06:38:44;29.27;;;14.30;;
2099;SDS011;1055;48.854;9.302;2023-01-26T06:41:11;35.20;;;15.30;;
2099;SDS011;1055;48.854;9.302;2023-01-26T06:43:36;35.40;;;14.97;;
2099;SDS011;1055;48.854;9.302;2023-01-26T06:46:03;38.43;;;14.70;;
2099;SDS011;1055;48.854;9.302;2023-01-26T06:48:30;35.45;;;15.05;;
2099;SDS011;1055;48.854;9.302;2023-01-26T06:53:56;33.08;;;15.38;;
2099;SDS011;1055;48.854;9.302;2023-01-26T06:56:22;34.92;;;17.58;;
2099;SDS011;1055;48.854;9.302;2023-01-26T06:58:49;35.90;;;17.17;;
2099;SDS011;1055;48.854;9.302;2023-01-26T07:01:22;36.63;;;16.42;;
2099;SDS011;1055;48.854;9.302;2023-01-26T07:03:50;30.50;;;14.40;;
2099;SDS011;1055;48.854;9.302;2023-01-26T07:06:17;33.90;;;14.57;;
2099;SDS011;1055;48.854;9.302;2023-01-26T07:08:43;32.97;;;14.33;;
2099;SDS011;1055;48.854;9.302;2023-01-26T07:11:09;28.75;;;15.20;;
2099;SDS011;1055;48.854;9.302;2023-01-26T07:13:35;28.92;;;14.73;;
2099;SDS011;1055;48.854;9.302;2023-01-26T07:16:05;35.00;;;16.20;;
2099;SDS011;1055;48.854;9.302;2023-01-26T07:18:32;33.20;;;15.73;;
2099;SDS011;1055;48.854;9.302;2023-01-26T07:21:06;34.80;;;14.90;;
2099;SDS011;1055;48.854;9.302;2023-01-26T07:23:34;31.80;;;16.92;;
2099;SDS011;1055;48.854;9.302;2023-01-26T07:26:00;31.13;;;14.30;;
2099;SDS011;1055;48.854;9.302;2023-01-26T07:28:25;30.53;;;14.77;;
2099;SDS011;1055;48.854;9.302;2023-01-26T07:30:51;32.90;;;15.43;;
2099;SDS011;1055;48.854;9.302;2023-01-26T07:33:21;33.95;;;16.08;;
2099;SDS011;1055;48.854;9.302;2023-01-26T07:35:46;36.50;;;17.20;;
2099;SDS011;1055;48.854;9.302;2023-01-26T07:38:12;32.33;;;15.77;;
2099;SDS011;1055;48.854;9.302;2023-01-26T07:40:37;32.97;;;16.47;;
2099;SDS011;1055;48.854;9.302;2023-01-26T07:43:03;37.10;;;17.37;;
2099;SDS011;1055;48.854;9.302;2023-01-26T07:45:29;31.87;;;14.50;;
2099;SDS011;1055;48.854;9.302;2023-01-26T07:47:54;37.67;;;17.23;;
2099;SDS011;1055;48.854;9.302;2023-01-26T07:50:20;36.77;;;16.60;;
2099;SDS011;1055;48.854;9.302;2023-01-26T07:52:46;36.57;;;17.10;;
2099;SDS011;1055;48.854;9.302;2023-01-26T07:55:12;36.20;;;16.60;;
2099;SDS011;1055;48.854;9.302;2023-01-26T07:57:39;38.72;;;17.40;;
2099;SDS011;1055;48.854;9.302;2023-01-26T08:00:05;41.33;;;16.73;;
2099;SDS011;1055;48.854;9.302;2023-01-26T08:02:31;32.50;;;15.18;;
2099;SDS011;1055;48.854;9.302;2023-01-26T08:04:57;35.83;;;16.83;;
2099;SDS011;1055;48.854;9.302;2023-01-26T08:07:24;39.55;;;15.35;;
2099;SDS011;1055;48.854;9.302;2023-01-26T08:09:50;34.17;;;15.50;;
2099;SDS011;1055;48.854;9.302;2023-01-26T08:12:15;33.13;;;16.70;;
2099;SDS011;1055;48.854;9.302;2023-01-26T08:14:41;35.87;;;17.33;;
2099;SDS011;1055;48.854;9.302;2023-01-26T08:17:07;32.73;;;16.47;;
2099;SDS011;1055;48.854;9.302;2023-01-26T08:19:32;33.73;;;15.47;;
2099;SDS011;1055;48.854;9.302;2023-01-26T08:21:58;31.30;;;14.70;;
2099;SDS011;1055;48.854;9.302;2023-01-26T08:24:23;34.73;;;15.33;;
2099;SDS011;1055;48.854;9.302;2023-01-26T08:26:50;35.05;;;19.25;;
2099;SDS011;1055;48.854;9.302;2023-01-26T08:29:16;34.10;;;16.73;;
2099;SDS011;1055;48.854;9.302;2023-01-26T08:31:42;36.92;;;16.38;;
2099;SDS011;1055;48.854;9.302;2023-01-26T08:34:07;31.50;;;15.10;;
2099;SDS011;1055;48.854;9.302;2023-01-26T08:36:33;26.63;;;12.87;;
2099;SDS011;1055;48.854;9.302;2023-01-26T08:38:59;33.30;;;16.03;;
2099;SDS011;1055;48.854;9.302;2023-01-26T08:41:26;32.45;;;14.05;;
2099;SDS011;1055;48.854;9.302;2023-01-26T08:43:52;34.30;;;16.03;;
2099;SDS011;1055;48.854;9.302;2023-01-26T08:46:17;28.87;;;15.07;;
2099;SDS011;1055;48.854;9.302;2023-01-26T08:48:43;28.30;;;13.93;;
2099;SDS011;1055;48.854;9.302;2023-01-26T08:51:09;32.47;;;14.37;;
2099;SDS011;1055;48.854;9.302;2023-01-26T08:53:35;32.70;;;15.40;;
2099;SDS011;1055;48.854;9.302;2023-01-26T08:56:02;22.92;;;11.63;;
2099;SDS011;1055;48.854;9.302;2023-01-26T08:58:29;30.23;;;13.82;;
2099;SDS011;1055;48.854;9.302;2023-01-26T09:00:55;30.15;;;14.77;;
2099;SDS011;1055;48.854;9.302;2023-01-26T09:03:20;29.63;;;13.80;;
2099;SDS011;1055;48.854;9.302;2023-01-26T09:05:46;30.20;;;13.23;;
2099;SDS011;1055;48.854;9.302;2023-01-26T09:08:11;28.23;;;14.03;;
2099;SDS011;1055;48.854;9.302;2023-01-26T09:10:37;27.80;;;12.37;;
2099;SDS011;1055;48.854;9.302;2023-01-26T09:13:03;27.00;;;13.18;;
2099;SDS011;1055;48.854;9.302;2023-01-26T09:15:29;27.10;;;12.43;;
2099;SDS011;1055;48.854;9.302;2023-01-26T09:17:54;25.47;;;12.70;;
2099;SDS011;1055;48.854;9.302;2023-01-26T09:20:20;29.30;;;14.60;;
2099;SDS011;1055;48.854;9.302;2023-01-26T09:22:45;28.70;;;14.80;;
2099;SDS011;1055;48.854;9.302;2023-01-26T09:25:12;29.23;;;15.27;;
2099;SDS011;1055;48.854;9.302;2023-01-26T09:27:38;29.05;;;14.40;;
2099;SDS011;1055;48.854;9.302;2023-01-26T09:30:05;24.58;;;10.52;;
2099;SDS011;1055;48.854;9.302;2023-01-26T09:32:33;32.20;;;14.45;;
2099;SDS011;1055;48.854;9.302;2023-01-26T09:34:59;25.17;;;12.10;;
2099;SDS011;1055;48.854;9.302;2023-01-26T09:37:24;27.30;;;13.27;;
2099;SDS011;1055;48.854;9.302;2023-01-26T09:39:50;26.00;;;12.60;;
2099;SDS011;1055;48.854;9.302;2023-01-26T09:50:48;25.80;;;11.60;;
2099;SDS011;1055;48.854;9.302;2023-01-26T09:53:38;29.33;;;13.85;;
2099;SDS011;1055;48.854;9.302;2023-01-26T09:56:04;27.08;;;12.63;;
2099;SDS011;1055;48.854;9.302;2023-01-26T09:58:37;32.53;;;16.00;;
2099;SDS011;1055;48.854;9.302;2023-01-26T10:01:04;24.05;;;11.00;;
2099;SDS011;1055;48.854;9.302;2023-01-26T10:04:03;23.90;;;11.40;;
2099;SDS011;1055;48.854;9.302;2023-01-26T10:06:37;23.50;;;11.20;;
2099;SDS011;1055;48.854;9.302;2023-01-26T10:09:25;29.35;;;13.50;;
2099;SDS011;1055;48.854;9.302;2023-01-26T10:11:53;25.08;;;11.20;;
2099;SDS011;1055;48.854;9.302;2023-01-26T10:17:02;30.08;;;12.10;;
2099;SDS011;1055;48.854;9.302;2023-01-26T10:19:50;24.92;;;12.13;;
2099;SDS011;1055;48.854;9.302;2023-01-26T10:25:13;25.67;;;12.65;;
2099;SDS011;1055;48.854;9.302;2023-01-26T10:27:51;24.63;;;12.85;;
2099;SDS011;1055;48.854;9.302;2023-01-26T10:30:18;22.17;;;11.57;;
2099;SDS011;1055;48.854;9.302;2023-01-26T10:32:44;28.52;;;12.68;;
2099;SDS011;1055;48.854;9.302;2023-01-26T10:35:16;28.48;;;12.73;;
2099;SDS011;1055;48.854;9.302;2023-01-26T10:37:44;26.17;;;11.63;;
2099;SDS011;1055;48.854;9.302;2023-01-26T10:40:10;25.33;;;10.60;;
2099;SDS011;1055;48.854;9.302;2023-01-26T10:42:36;23.85;;;11.02;;
2099;SDS011;1055;48.854;9.302;2023-01-26T10:45:04;24.75;;;11.43;;
2099;SDS011;1055;48.854;9.302;2023-01-26T10:48:30;28.17;;;11.48;;
2099;SDS011;1055;48.854;9.302;2023-01-26T10:50:51;26.20;;;11.25;;
2099;SDS011;1055;48.854;9.302;2023-01-26T10:53:24;24.42;;;11.25;;
2099;SDS011;1055;48.854;9.302;2023-01-26T10:56:27;21.55;;;12.35;;
2099;SDS011;1055;48.854;9.302;2023-01-26T10:58:51;25.42;;;11.60;;
2099;SDS011;1055;48.854;9.302;2023-01-26T11:01:21;20.02;;;9.55;;
2099;SDS011;1055;48.854;9.302;2023-01-26T11:06:30;22.73;;;10.68;;
2099;SDS011;1055;48.854;9.302;2023-01-26T11:12:02;22.63;;;10.07;;
2099;SDS011;1055;48.854;9.302;2023-01-26T11:14:31;20.67;;;9.50;;
2099;SDS011;1055;48.854;9.302;2023-01-26T11:22:15;21.48;;;9.75;;
2099;SDS011;1055;48.854;9.302;2023-01-26T11:28:10;19.13;;;9.88;;
2099;SDS011;1055;48.854;9.302;2023-01-26T11:33:26;21.27;;;11.32;;
2099;SDS011;1055;48.854;9.302;2023-01-26T11:39:02;23.90;;;11.32;;
2099;SDS011;1055;48.854;9.302;2023-01-26T11:41:47;23.60;;;9.88;;
2099;SDS011;1055;48.854;9.302;2023-01-26T11:44:31;21.65;;;12.15;;
2099;SDS011;1055;48.854;9.302;2023-01-26T11:52:48;23.35;;;11.35;;
2099;SDS011;1055;48.854;9.302;2023-01-26T11:55:51;23.33;;;12.25;;
2099;SDS011;1055;48.854;9.302;2023-01-26T11:58:44;28.17;;;12.52;;
2099;SDS011;1055;48.854;9.302;2023-01-26T12:03:55;26.85;;;11.52;;
2099;SDS011;1055;48.854;9.302;2023-01-26T12:06:25;25.25;;;12.98;;
2099;SDS011;1055;48.854;9.302;2023-01-26T12:08:53;31.25;;;15.80;;
2099;SDS011;1055;48.854;9.302;2023-01-26T12:11:30;28.00;;;13.32;;
2099;SDS011;1055;48.854;9.302;2023-01-26T12:21:50;25.02;;;11.00;;
2099;SDS011;1055;48.854;9.302;2023-01-26T12:24:26;28.75;;;14.13;;
2099;SDS011;1055;48.854;9.302;2023-01-26T12:27:19;29.50;;;13.88;;
2099;SDS011;1055;48.854;9.302;2023-01-26T12:32:55;28.48;;;15.15;;
2099;SDS011;1055;48.854;9.302;2023-01-26T12:38:45;29.13;;;13.35;;
2099;SDS011;1055;48.854;9.302;2023-01-26T12:44:16;25.58;;;13.50;;
2099;SDS011;1055;48.854;9.302;2023-01-26T12:46:45;31.02;;;14.18;;
2099;SDS011;1055;48.854;9.302;2023-01-26T12:49:20;31.60;;;14.02;;
2099;SDS011;1055;48.854;9.302;2023-01-26T12:51:54;28.65;;;15.00;;
2099;SDS011;1055;48.854;9.302;2023-01-26T12:54:33;30.42;;;14.15;;
2099;SDS011;1055;48.854;9.302;2023-01-26T12:57:06;26.98;;;14.55;;
2099;SDS011;1055;48.854;9.302;2023-01-26T12:59:39;26.38;;;12.55;;
2099;SDS011;1055;48.854;9.302;2023-01-26T13:02:18;23.25;;;11.90;;
2099;SDS011;1055;48.854;9.302;2023-01-26T13:04:51;25.48;;;12.30;;
2099;SDS011;1055;48.854;9.302;2023-01-26T13:07:33;21.10;;;11.37;;
2099;SDS011;1055;48.854;9.302;2023-01-26T13:12:46;25.35;;;12.25;;
2099;SDS011;1055;48.854;9.302;2023-01-26T13:15:16;23.17;;;12.60;;
2099;SDS011;1055;48.854;9.302;2023-01-26T13:17:53;24.83;;;13.48;;
2099;SDS011;1055;48.854;9.302;2023-01-26T13:20:55;26.77;;;12.25;;
2099;SDS011;1055;48.854;9.302;2023-01-26T13:28:34;20.90;;;10.48;;
2099;SDS011;1055;48.854;9.302;2023-01-26T13:31:03;18.53;;;9.77;;
2099;SDS011;1055;48.854;9.302;2023-01-26T13:33:30;20.52;;;10.30;;
2099;SDS011;1055;48.854;9.302;2023-01-26T13:35:56;23.27;;;10.10;;
2099;SDS011;1055;48.854;9.302;2023-01-26T13:38:25;20.73;;;10.20;;
2099;SDS011;1055;48.854;9.302;2023-01-26T13:41:12;24.65;;;10.43;;
2099;SDS011;1055;48.854;9.302;2023-01-26T13:46:13;19.00;;;10.35;;
2099;SDS011;1055;48.854;9.302;2023-01-26T13:49:02;18.58;;;9.65;;
2099;SDS011;1055;48.854;9.302;2023-01-26T13:51:29;21.90;;;10.73;;
2099;SDS011;1055;48.854;9.302;2023-01-26T13:54:10;19.25;;;10.05;;
2099;SDS011;1055;48.854;9.302;2023-01-26T13:56:41;21.40;;;10.35;;
2099;SDS011;1055;48.854;9.302;2023-01-26T13:59:27;19.38;;;9.65;;
2099;SDS011;1055;48.854;9.302;2023-01-26T14:01:54;19.53;;;10.03;;
2099;SDS011;1055;48.854;9.302;2023-01-26T14:04:28;18.80;;;9.43;;
2099;SDS011;1055;48.854;9.302;2023-01-26T14:06:56;18.70;;;9.73;;
2099;SDS011;1055;48.854;9.302;2023-01-26T14:09:41;19.40;;;9.32;;
2099;SDS011;1055;48.854;9.302;2023-01-26T14:12:17;19.52;;;9.55;;
2099;SDS011;1055;48.854;9.302;2023-01-26T14:14:59;22.70;;;10.95;;
2099;SDS011;1055;48.854;9.302;2023-01-26T14:19:53;21.90;;;10.17;;
2099;SDS011;1055;48.854;9.302;2023-01-26T14:22:19;21.75;;;9.60;;
2099;SDS011;1055;48.854;9.302;2023-01-26T14:24:49;19.27;;;9.10;;
2099;SDS011;1055;48.854;9.302;2023-01-26T14:27:22;21.60;;;10.57;;
2099;SDS011;1055;48.854;9.302;2023-01-26T14:29:57;23.63;;;11.30;;
2099;SDS011;1055;48.854;9.302;2023-01-26T14:32:23;22.20;;;10.63;;
2099;SDS011;1055;48.854;9.302;2023-01-26T14:34:50;22.25;;;9.80;;
2099;SDS011;1055;48.854;9.302;2023-01-26T14:37:20;20.98;;;9.07;;
2099;SDS011;1055;48.854;9.302;2023-01-26T14:39:46;17.98;;;9.02;;
2099;SDS011;1055;48.854;9.302;2023-01-26T14:42:13;19.57;;;9.17;;
2099;SDS011;1055;48.854;9.302;2023-01-26T14:44:40;21.35;;;11.05;;
2099;SDS011;1055;48.854;9.302;2023-01-26T14:47:08;17.97;;;8.43;;
2099;SDS011;1055;48.854;9.302;2023-01-26T14:49:43;20.98;;;10.75;;
2099;SDS011;1055;48.854;9.302;2023-01-26T14:52:20;19.10;;;10.40;;
2099;SDS011;1055;48.854;9.302;2023-01-26T14:54:50;17.23;;;8.48;;
2099;SDS011;1055;48.854;9.302;2023-01-26T14:57:19;17.77;;;8.77;;
2099;SDS011;1055;48.854;9.302;2023-01-26T14:59:48;17.30;;;8.40;;
2099;SDS011;1055;48.854;9.302;2023-01-26T15:04:45;19.55;;;9.07;;
2099;SDS011;1055;48.854;9.302;2023-01-26T15:09:55;15.43;;;7.75;;
2099;SDS011;1055;48.854;9.302;2023-01-26T15:12:21;15.90;;;7.63;;
2099;SDS011;1055;48.854;9.302;2023-01-26T15:14:48;16.10;;;7.97;;
2099;SDS011;1055;48.854;9.302;2023-01-26T15:20:01;18.73;;;8.73;;
2099;SDS011;1055;48.854;9.302;2023-01-26T15:22:39;16.95;;;8.80;;
2099;SDS011;1055;48.854;9.302;2023-01-26T15:25:22;19.40;;;9.13;;
2099;SDS011;1055;48.854;9.302;2023-01-26T15:27:55;17.25;;;8.48;;
2099;SDS011;1055;48.854;9.302;2023-01-26T15:30:32;15.70;;;7.40;;
2099;SDS011;1055;48.854;9.302;2023-01-26T15:32:59;15.57;;;7.32;;
2099;SDS011;1055;48.854;9.302;2023-01-26T15:35:26;14.02;;;7.55;;
2099;SDS011;1055;48.854;9.302;2023-01-26T15:40:25;20.90;;;12.02;;
2099;SDS011;1055;48.854;9.302;2023-01-26T15:43:02;388.67;;;42.57;;
2099;SDS011;1055;48.854;9.302;2023-01-26T15:45:51;16.63;;;7.90;;
2099;SDS011;1055;48.854;9.302;2023-01-26T15:48:19;20.02;;;9.75;;
2099;SDS011;1055;48.854;9.302;2023-01-26T15:50:45;20.15;;;11.05;;
2099;SDS011;1055;48.854;9.302;2023-01-26T15:53:13;19.05;;;10.77;;
2099;SDS011;1055;48.854;9.302;2023-01-26T15:55:39;19.00;;;9.43;;
2099;SDS011;1055;48.854;9.302;2023-01-26T15:58:05;18.67;;;9.68;;
2099;SDS011;1055;48.854;9.302;2023-01-26T16:00:31;16.30;;;7.40;;
2099;SDS011;1055;48.854;9.302;2023-01-26T16:02:57;14.63;;;7.27;;
2099;SDS011;1055;48.854;9.302;2023-01-26T16:05:25;16.63;;;7.72;;
2099;SDS011;1055;48.854;9.302;2023-01-26T16:07:51;15.35;;;7.43;;
2099;SDS011;1055;48.854;9.302;2023-01-26T16:10:16;13.80;;;7.07;;
2099;SDS011;1055;48.854;9.302;2023-01-26T16:12:43;16.97;;;7.60;;
2099;SDS011;1055;48.854;9.302;2023-01-26T16:18:03;14.77;;;7.80;;
2099;SDS011;1055;48.854;9.302;2023-01-26T16:20:29;16.65;;;8.60;;
2099;SDS011;1055;48.854;9.302;2023-01-26T16:22:55;18.30;;;8.50;;
2099;SDS011;1055;48.854;9.302;2023-01-26T16:25:26;14.63;;;7.33;;
2099;SDS011;1055;48.854;9.302;2023-01-26T16:28:48;17.80;;;9.43;;
2099;SDS011;1055;48.854;9.302;2023-01-26T16:34:36;15.57;;;7.72;;
2099;SDS011;1055;48.854;9.302;2023-01-26T16:37:01;18.20;;;8.40;;
2099;SDS011;1055;48.854;9.302;2023-01-26T16:39:27;20.67;;;10.57;;
2099;SDS011;1055;48.854;9.302;2023-01-26T16:41:52;18.57;;;10.40;;
2099;SDS011;1055;48.854;9.302;2023-01-26T16:44:18;18.40;;;9.53;;
2099;SDS011;1055;48.854;9.302;2023-01-26T16:46:45;18.13;;;9.48;;